Jungo, Nevada
Current Conditions -  °F | °C
As of 3:56 AM on Friday 19 Dec 2014 (Local Time) from KWMC Reporting Station
Overcast Overcast  
Wind Chill: 32°   Ceiling: 6500
Heat Index: 39°   Visibility: 10mi
Dew Point: 28°   Wind: 12mph
Humidity: 65%   Direction: 200°SSW
Pressure: 30.1"   Gusts: NA
Location:  41.1353°N, 118.186°W
Report Text: KWMC 191156Z AUTO 20010KT 10SM OVC065 04/M02 A3010 RMK AO2 SLP191 T00391022 10039 20022 53002 $
Loading
Personal Weather Stations






























Interactive Weather Map New forecast layout! Learn more

10-Day Weather Forecast

Advertisements
Track Severe Weather on mobile